Time;durP1;ratioP1;P1;durP2;ratioP2;P2;SDS_P1;SDS_P2;PMS_P1;PMS_P2;Temp;Humidity;BMP_temperature;BMP_pressure;BME280_temperature;BME280_humidity;BME280_pressure;Samples;Min_cycle;Max_cycle;Signal;HPM_P1;HPM_P2
2022/07/26 00:01:38;;;;;;;5.03;4.53;;;29.40;49.20;;;;;;5073358;28;20409;-81
2022/07/26 00:04:05;;;;;;;5.60;5.10;;;29.40;49.20;;;;;;5073190;28;20417;-82
2022/07/26 00:06:31;;;;;;;4.97;4.47;;;29.40;49.10;;;;;;5073266;28;20501;-82
2022/07/26 00:08:56;;;;;;;5.80;5.30;;;29.40;49.10;;;;;;5090483;28;20393;-82
2022/07/26 00:11:24;;;;;;;4.80;4.37;;;29.40;49.10;;;;;;5091269;28;20458;-82
2022/07/26 00:13:50;;;;;;;4.77;4.37;;;29.50;49.10;;;;;;5056813;28;20435;-82
2022/07/26 00:16:21;;;;;;;5.20;4.70;;;29.50;49.10;;;;;;5073319;28;20413;-82
2022/07/26 00:18:51;;;;;;;5.57;4.63;;;29.40;49.20;;;;;;5074995;28;20708;-82
2022/07/26 00:21:17;;;;;;;4.40;4.00;;;29.40;49.20;;;;;;5058123;28;20416;-82
2022/07/26 00:23:44;;;;;;;4.13;3.73;;;29.40;49.20;;;;;;5074869;28;20424;-81
2022/07/26 00:26:10;;;;;;;4.77;3.90;;;29.40;49.20;;;;;;5059014;28;20521;-81
2022/07/26 00:28:40;;;;;;;4.70;4.30;;;29.40;49.30;;;;;;5075545;28;20405;-81
2022/07/26 00:31:06;;;;;;;5.27;4.30;;;29.40;49.30;;;;;;5075321;28;20476;-81
2022/07/26 00:33:33;;;;;;;4.37;4.03;;;29.40;49.20;;;;;;5076001;28;20413;-81
2022/07/26 00:35:59;;;;;;;4.33;3.90;;;29.40;49.10;;;;;;5075517;28;20421;-82
2022/07/26 00:38:25;;;;;;;4.13;3.73;;;29.40;49.10;;;;;;5076138;28;20449;-82
2022/07/26 00:40:51;;;;;;;3.90;3.20;;;29.40;49.00;;;;;;5075869;28;20595;-82
2022/07/26 00:43:19;;;;;;;3.50;3.00;;;29.40;48.90;;;;;;5093116;28;20439;-82
2022/07/26 00:45:45;;;;;;;3.77;3.00;;;29.40;48.80;;;;;;5092288;28;20498;-82
2022/07/26 00:48:12;;;;;;;3.83;3.50;;;29.40;48.80;;;;;;5075460;28;20436;-82
2022/07/26 00:50:41;;;;;;;3.40;2.90;;;29.40;48.70;;;;;;5075121;28;20385;-82
2022/07/26 00:53:07;;;;;;;3.43;3.17;;;29.40;48.70;;;;;;5075844;28;20455;-82
2022/07/26 00:55:33;;;;;;;2.97;2.63;;;29.40;48.60;;;;;;5092368;28;20449;-82
2022/07/26 00:58:02;;;;;;;3.10;2.80;;;29.40;48.60;;;;;;5075612;28;20405;-82
2022/07/26 01:00:28;;;;;;;3.60;3.13;;;29.40;48.50;;;;;;5092644;28;20435;-82
2022/07/26 01:02:55;;;;;;;2.37;2.17;;;29.30;48.50;;;;;;5074635;28;20420;-82
2022/07/26 01:05:28;;;;;;;2.90;2.67;;;29.30;48.50;;;;;;5075248;28;20428;-82
2022/07/26 01:08:00;;;;;;;3.57;2.30;;;29.30;48.50;;;;;;5074994;28;20405;-82
2022/07/26 01:10:27;;;;;;;3.30;3.00;;;29.30;48.60;;;;;;5075134;28;20407;-82
2022/07/26 01:13:08;;;;;;;4.20;2.80;;;29.30;48.50;;;;;;5096330;28;20483;-82
2022/07/26 01:15:36;;;;;;;3.20;2.90;;;29.30;48.50;;;;;;5079149;28;20417;-82
2022/07/26 01:18:02;;;;;;;3.23;2.93;;;29.30;48.50;;;;;;5046394;28;20434;-82
2022/07/26 01:20:29;;;;;;;3.53;2.53;;;29.30;48.50;;;;;;5112339;28;20408;-82
2022/07/26 01:22:55;;;;;;;3.90;3.00;;;29.30;48.50;;;;;;5078844;28;20420;-82
2022/07/26 01:25:33;;;;;;;3.20;2.80;;;29.30;48.40;;;;;;5078840;28;20459;-82
2022/07/26 01:28:03;;;;;;;3.73;2.70;;;29.30;48.40;;;;;;5093057;28;20421;-82
2022/07/26 01:30:29;;;;;;;3.10;2.80;;;29.30;48.40;;;;;;5058635;28;20451;-82
2022/07/26 01:32:55;;;;;;;2.60;2.40;;;29.30;48.40;;;;;;5060326;28;20446;-82
2022/07/26 01:35:25;;;;;;;3.10;2.80;;;29.30;48.40;;;;;;5095911;28;20421;-82
2022/07/26 01:37:55;;;;;;;3.97;3.30;;;29.30;48.40;;;;;;5062735;28;20428;-81
2022/07/26 01:40:22;;;;;;;3.17;2.60;;;29.30;48.40;;;;;;5077817;28;20413;-80
2022/07/26 01:42:53;;;;;;;3.77;3.47;;;29.20;48.30;;;;;;5095699;28;20428;-82
2022/07/26 01:45:19;;;;;;;5.47;2.73;;;29.20;48.30;;;;;;5078223;28;20452;-81
2022/07/26 01:47:48;;;;;;;3.03;2.50;;;29.20;48.30;;;;;;5095489;28;20463;-81
2022/07/26 01:50:16;;;;;;;2.90;2.60;;;29.20;48.30;;;;;;5078135;28;20450;-82
2022/07/26 01:52:42;;;;;;;3.83;3.03;;;29.20;48.40;;;;;;5077355;28;20478;-82
2022/07/26 01:55:09;;;;;;;3.30;2.67;;;29.20;48.30;;;;;;5094123;28;20416;-82
2022/07/26 01:57:35;;;;;;;3.40;2.50;;;29.20;48.30;;;;;;5078059;28;20432;-82
2022/07/26 02:00:04;;;;;;;3.10;2.80;;;29.20;48.30;;;;;;5095710;28;20444;-82
2022/07/26 02:02:30;;;;;;;4.40;2.67;;;29.20;48.30;;;;;;5060346;28;20426;-82
2022/07/26 02:05:00;;;;;;;3.37;3.17;;;29.20;48.30;;;;;;5077528;28;20412;-81
2022/07/26 02:07:29;;;;;;;5.63;3.27;;;29.20;48.30;;;;;;5093720;28;20432;-81
2022/07/26 02:09:56;;;;;;;2.60;2.40;;;29.20;48.30;;;;;;5093572;28;20428;-81
2022/07/26 02:12:25;;;;;;;2.87;2.57;;;29.20;48.20;;;;;;5092098;28;20413;-81
2022/07/26 02:14:54;;;;;;;4.07;2.80;;;29.20;48.20;;;;;;5055904;28;20429;-81
2022/07/26 02:17:20;;;;;;;2.73;2.47;;;29.20;48.10;;;;;;5055496;28;20414;-81
2022/07/26 02:19:46;;;;;;;3.87;2.77;;;29.20;48.20;;;;;;5085991;28;20444;-81
2022/07/26 02:22:13;;;;;;;4.20;2.70;;;29.20;48.10;;;;;;5072041;28;20191;-81
2022/07/26 02:24:39;;;;;;;3.40;2.47;;;29.20;48.20;;;;;;5055076;28;20453;-81
2022/07/26 02:27:05;;;;;;;3.70;3.07;;;29.20;48.10;;;;;;5072426;28;20528;-81
2022/07/26 02:29:32;;;;;;;2.70;2.33;;;29.20;48.10;;;;;;5099971;28;20412;-81
2022/07/26 02:31:59;;;;;;;3.80;2.20;;;29.10;48.00;;;;;;5075120;28;20476;-80
2022/07/26 02:34:25;;;;;;;5.20;2.40;;;29.10;48.00;;;;;;5075073;28;20417;-81
2022/07/26 02:36:51;;;;;;;3.33;2.43;;;29.10;48.10;;;;;;5092912;28;20401;-81
2022/07/26 02:39:18;;;;;;;3.20;2.73;;;29.10;48.00;;;;;;5072008;28;20433;-81
2022/07/26 02:41:44;;;;;;;4.77;2.60;;;29.10;48.00;;;;;;5072105;28;20785;-81
2022/07/26 02:44:10;;;;;;;2.53;2.33;;;29.10;47.90;;;;;;5074954;28;20462;-81
2022/07/26 02:46:36;;;;;;;6.10;2.43;;;29.10;48.50;;;;;;5074706;28;20476;-81
2022/07/26 02:49:03;;;;;;;3.10;2.80;;;29.10;47.90;;;;;;5075464;28;20252;-81
2022/07/26 02:51:31;;;;;;;3.87;3.20;;;29.10;47.90;;;;;;5092391;28;20431;-81
2022/07/26 02:53:58;;;;;;;3.37;2.80;;;29.10;47.90;;;;;;5074657;28;20421;-81
2022/07/26 02:56:24;;;;;;;3.60;3.10;;;29.10;47.90;;;;;;5074493;28;20404;-81
2022/07/26 02:58:50;;;;;;;3.20;2.77;;;29.10;48.50;;;;;;5074707;28;20409;-81
2022/07/26 03:01:16;;;;;;;3.03;2.50;;;29.10;47.90;;;;;;5092564;28;20401;-81
2022/07/26 03:03:42;;;;;;;4.03;3.10;;;29.10;47.90;;;;;;5074923;28;20565;-81
2022/07/26 03:06:13;;;;;;;3.10;2.60;;;29.10;47.80;;;;;;5057759;28;20206;-81
2022/07/26 03:08:39;;;;;;;4.17;3.17;;;29.10;47.80;;;;;;5092327;28;20822;-80
2022/07/26 03:11:05;;;;;;;2.53;2.33;;;29.10;47.90;;;;;;5092280;28;20405;-81
2022/07/26 03:13:32;;;;;;;3.00;2.70;;;29.10;47.90;;;;;;5074202;28;20433;-81
2022/07/26 03:15:59;;;;;;;2.80;2.60;;;29.10;47.90;;;;;;5073673;28;20420;-81
2022/07/26 03:18:25;;;;;;;2.83;2.50;;;29.10;47.90;;;;;;5092300;28;20459;-81
2022/07/26 03:20:51;;;;;;;3.40;3.00;;;29.10;47.90;;;;;;5073987;28;20417;-81
2022/07/26 03:23:17;;;;;;;3.43;2.60;;;29.10;48.00;;;;;;5074064;28;20242;-81
2022/07/26 03:25:43;;;;;;;3.17;2.90;;;29.10;48.00;;;;;;5090916;28;20711;-81
2022/07/26 03:28:09;;;;;;;3.90;2.67;;;29.10;48.00;;;;;;5073326;28;20424;-81
2022/07/26 03:30:35;;;;;;;2.73;2.53;;;29.10;48.00;;;;;;5073655;28;20409;-81
2022/07/26 03:33:01;;;;;;;3.30;2.63;;;29.10;48.00;;;;;;5072862;28;20869;-81
2022/07/26 03:35:27;;;;;;;3.17;2.70;;;29.10;48.00;;;;;;5073584;28;20405;-81
2022/07/26 03:37:53;;;;;;;3.40;2.57;;;29.10;48.00;;;;;;5091204;28;20412;-81
2022/07/26 03:40:20;;;;;;;3.03;2.13;;;29.10;47.90;;;;;;5088983;28;20421;-81
2022/07/26 03:42:47;;;;;;;2.77;2.57;;;29.10;47.90;;;;;;5107542;28;20429;-81
2022/07/26 03:45:14;;;;;;;2.60;2.40;;;29.10;47.90;;;;;;5074433;28;20416;-81
2022/07/26 03:47:40;;;;;;;2.50;2.30;;;29.10;47.90;;;;;;5074550;28;20425;-81
2022/07/26 03:50:09;;;;;;;2.63;2.23;;;29.10;47.90;;;;;;5091630;28;20409;-81
2022/07/26 03:52:36;;;;;;;7.20;2.77;;;29.10;47.80;;;;;;5074152;28;20408;-81
2022/07/26 03:56:27;;;;;;;2.67;2.40;;;29.00;47.70;;;;;;5073742;28;20413;-81
2022/07/26 03:57:49;;;;;;;3.10;2.40;;;29.00;47.70;;;;;;5090679;28;20442;-80
2022/07/26 04:00:26;;;;;;;3.03;2.67;;;29.10;47.70;;;;;;5091988;28;20460;-80
2022/07/26 04:02:53;;;;;;;2.17;1.90;;;29.10;47.60;;;;;;5107349;28;20174;-80
2022/07/26 04:05:20;;;;;;;3.00;2.30;;;29.10;47.50;;;;;;5107628;28;20411;-80
2022/07/26 04:07:46;;;;;;;3.20;2.37;;;29.10;47.60;;;;;;5073493;28;20416;-80
2022/07/26 04:10:14;;;;;;;2.80;2.50;;;29.10;47.60;;;;;;5073968;28;20412;-80
2022/07/26 04:12:43;;;;;;;3.23;2.77;;;29.10;47.70;;;;;;5073503;28;20408;-80
2022/07/26 04:15:09;;;;;;;3.43;3.10;;;29.10;47.40;;;;;;5091477;28;20401;-80
2022/07/26 04:17:42;;;;;;;2.60;2.40;;;29.00;47.20;;;;;;5073662;28;20439;-79
2022/07/26 04:20:14;;;;;;;2.50;2.30;;;29.10;47.30;;;;;;5058472;28;20475;-81
2022/07/26 04:22:41;;;;;;;2.63;2.37;;;29.10;47.30;;;;;;5076995;28;20392;-81
2022/07/26 04:25:11;;;;;;;2.83;2.57;;;29.10;47.40;;;;;;5075720;28;20412;-81
2022/07/26 04:27:38;;;;;;;3.57;2.80;;;29.10;47.50;;;;;;5075503;28;20495;-82
2022/07/26 04:30:27;;;;;;;3.27;2.50;;;29.00;47.50;;;;;;5045149;28;20425;-81
2022/07/26 04:32:54;;;;;;;4.40;2.60;;;29.00;47.50;;;;;;5058645;28;20501;-82
2022/07/26 04:35:22;;;;;;;3.20;2.50;;;29.00;47.60;;;;;;5093663;28;20464;-82
2022/07/26 04:37:49;;;;;;;2.60;2.30;;;29.00;47.60;;;;;;5075219;28;20488;-82
2022/07/26 04:40:21;;;;;;;2.90;2.47;;;29.00;47.60;;;;;;5075326;28;20413;-82
2022/07/26 04:42:49;;;;;;;3.13;2.30;;;29.10;47.70;;;;;;5057991;28;20782;-82
2022/07/26 04:45:17;;;;;;;3.20;2.33;;;29.00;47.70;;;;;;5090400;28;20420;-82
2022/07/26 04:47:48;;;;;;;2.27;2.07;;;29.10;47.80;;;;;;5077627;28;20437;-82
2022/07/26 04:50:15;;;;;;;3.57;2.60;;;29.10;47.80;;;;;;5078320;28;20397;-82
2022/07/26 04:52:43;;;;;;;3.30;2.50;;;29.10;47.80;;;;;;5079136;28;20435;-81
2022/07/26 04:55:16;;;;;;;2.73;2.40;;;29.00;47.70;;;;;;5079021;28;20470;-82
2022/07/26 04:57:42;;;;;;;3.27;2.60;;;29.10;47.80;;;;;;5078836;28;20440;-82
2022/07/26 05:00:20;;;;;;;3.23;2.60;;;29.10;47.80;;;;;;5079015;28;20416;-82
2022/07/26 05:02:50;;;;;;;3.30;2.40;;;29.10;47.80;;;;;;5078937;28;20419;-82
2022/07/26 05:05:17;;;;;;;3.23;2.77;;;29.10;47.80;;;;;;5096845;28;20411;-81
2022/07/26 05:07:55;;;;;;;4.17;2.17;;;29.10;47.90;;;;;;5078843;28;20412;-82
2022/07/26 05:10:36;;;;;;;4.03;2.43;;;29.10;47.80;;;;;;5079999;28;20416;-81
2022/07/26 05:13:08;;;;;;;2.90;2.70;;;29.10;47.80;;;;;;5096473;28;20465;-81
2022/07/26 05:15:37;;;;;;;2.57;2.27;;;29.10;47.80;;;;;;5078409;28;20412;-81
2022/07/26 05:18:08;;;;;;;3.30;2.40;;;29.10;47.80;;;;;;5096665;28;20463;-81
2022/07/26 05:20:37;;;;;;;3.30;2.60;;;29.10;47.80;;;;;;5063367;28;20413;-81
2022/07/26 05:23:05;;;;;;;2.27;2.07;;;29.10;47.70;;;;;;5062949;28;20412;-81
2022/07/26 05:25:31;;;;;;;2.97;2.67;;;29.10;47.60;;;;;;5078848;28;20456;-82
2022/07/26 05:27:58;;;;;;;4.50;2.47;;;29.10;47.70;;;;;;5080086;28;20412;-81
2022/07/26 05:33:49;;;;;;;3.00;2.70;;;29.00;47.40;;;;;;5095815;28;20439;-81
2022/07/26 05:36:16;;;;;;;4.13;2.53;;;29.00;47.30;;;;;;5061662;28;20422;-81
2022/07/26 05:38:43;;;;;;;2.10;1.90;;;29.00;47.30;;;;;;5096168;28;20438;-81
2022/07/26 05:41:15;;;;;;;4.07;2.47;;;29.00;47.40;;;;;;5077931;28;20410;-81
2022/07/26 05:43:42;;;;;;;3.60;2.60;;;29.00;47.40;;;;;;5077672;28;20417;-81
2022/07/26 05:46:14;;;;;;;3.00;2.43;;;29.00;47.40;;;;;;5077676;28;20502;-81
2022/07/26 05:48:48;;;;;;;4.03;2.60;;;29.00;47.40;;;;;;5062552;28;20460;-81
2022/07/26 05:51:32;;;;;;;2.80;2.40;;;29.00;47.40;;;;;;5054855;28;20422;-80
2022/07/26 05:54:00;;;;;;;4.07;2.33;;;28.90;47.30;;;;;;5091077;28;20505;-81
2022/07/26 05:56:32;;;;;;;2.40;2.20;;;29.00;47.40;;;;;;5062105;28;20440;-81
2022/07/26 05:59:05;;;;;;;4.60;3.53;;;28.90;47.40;;;;;;5078397;28;20435;-81
2022/07/26 06:01:33;;;;;;;3.37;2.37;;;28.90;47.50;;;;;;5061026;28;20436;-81
2022/07/26 06:04:00;;;;;;;4.60;2.50;;;28.90;47.40;;;;;;5073453;28;20432;-81
2022/07/26 06:06:32;;;;;;;2.90;2.60;;;28.90;47.40;;;;;;5078066;28;20453;-81
2022/07/26 06:09:08;;;;;;;3.37;2.57;;;28.90;47.40;;;;;;5060914;28;20421;-81
2022/07/26 06:11:35;;;;;;;3.20;2.80;;;28.90;47.40;;;;;;5089936;28;20495;-81
2022/07/26 06:14:02;;;;;;;2.90;2.60;;;28.90;47.40;;;;;;5077888;28;20405;-81
2022/07/26 06:16:28;;;;;;;4.60;2.50;;;28.90;47.50;;;;;;5072449;28;20478;-81
2022/07/26 06:19:05;;;;;;;3.23;2.70;;;28.90;47.40;;;;;;5095386;28;20466;-81
2022/07/26 06:21:35;;;;;;;3.47;2.70;;;28.90;47.50;;;;;;5072134;28;20881;-81
2022/07/26 06:24:04;;;;;;;2.83;2.47;;;29.00;47.50;;;;;;5072508;28;20500;-81
2022/07/26 06:26:32;;;;;;;3.13;2.37;;;28.90;47.40;;;;;;5071115;28;20494;-81
2022/07/26 06:29:04;;;;;;;2.77;2.50;;;28.90;47.40;;;;;;5072013;28;20413;-81
2022/07/26 06:31:30;;;;;;;3.70;2.70;;;29.00;47.50;;;;;;5061495;28;20428;-81
2022/07/26 06:33:59;;;;;;;5.20;2.77;;;29.00;47.50;;;;;;5089070;28;20488;-81
2022/07/26 06:36:25;;;;;;;5.00;2.47;;;29.00;47.50;;;;;;5071210;28;20448;-81
2022/07/26 06:38:55;;;;;;;3.80;2.70;;;29.00;47.40;;;;;;5068931;28;20426;-81
2022/07/26 06:41:22;;;;;;;3.30;2.90;;;29.00;47.40;;;;;;5059571;28;20447;-81
2022/07/26 06:43:58;;;;;;;2.93;2.63;;;29.00;47.50;;;;;;5040243;28;20485;-81
2022/07/26 06:46:35;;;;;;;2.93;2.63;;;29.00;47.50;;;;;;5067683;28;20498;-81
2022/07/26 06:49:19;;;;;;;3.30;2.93;;;29.00;47.30;;;;;;5077433;28;20416;-80
2022/07/26 06:52:07;;;;;;;2.43;2.23;;;29.00;47.10;;;;;;5050858;28;20418;-81
2022/07/26 06:54:44;;;;;;;4.27;2.73;;;29.00;47.20;;;;;;5061254;28;20484;-79
2022/07/26 06:57:50;;;;;;;3.23;2.53;;;29.00;47.30;;;;;;5079400;28;20448;-81
2022/07/26 07:00:47;;;;;;;4.77;3.00;;;29.00;47.40;;;;;;5092191;28;20409;-82
2022/07/26 07:03:20;;;;;;;3.13;2.43;;;29.00;47.60;;;;;;5074117;28;20411;-82
2022/07/26 07:09:31;;;;;;;;;;;;;;;;;;;;;
2022/07/26 07:12:12;;;;;;;3.13;2.37;;;29.00;47.50;;;;;;5050553;28;20422;-83
2022/07/26 07:14:42;;;;;;;4.63;2.80;;;29.00;47.50;;;;;;5051028;28;20398;-82
2022/07/26 07:17:23;;;;;;;5.10;2.57;;;29.00;47.50;;;;;;5037222;28;20413;-82
2022/07/26 07:20:21;;;;;;;4.67;2.53;;;29.00;47.50;;;;;;5053820;28;20434;-81
2022/07/26 07:22:54;;;;;;;4.97;2.70;;;29.00;47.50;;;;;;5054343;28;20383;-82
2022/07/26 07:25:23;;;;;;;3.93;2.80;;;29.00;47.50;;;;;;5054075;28;20418;-80
2022/07/26 07:27:52;;;;;;;3.13;2.50;;;29.00;47.50;;;;;;5037110;28;20455;-82
2022/07/26 07:30:23;;;;;;;3.23;2.30;;;29.10;47.60;;;;;;5037266;28;20402;-81
2022/07/26 07:32:52;;;;;;;3.70;2.40;;;29.10;47.60;;;;;;5053591;28;20558;-81
2022/07/26 07:35:25;;;;;;;3.60;2.30;;;29.10;47.50;;;;;;5037305;28;20414;-82
2022/07/26 07:38:00;;;;;;;5.53;2.60;;;29.10;47.50;;;;;;5076040;28;20409;-83
2022/07/26 07:46:50;;;;;;;5.60;2.40;;;29.10;47.50;;;;;;5032403;28;20542;-82
2022/07/26 07:53:00;;;;;;;3.20;2.13;;;29.20;47.50;;;;;;5032825;28;20399;-81
2022/07/26 08:02:06;;;;;;;4.57;2.07;;;29.20;47.50;;;;;;5033497;28;20374;-82
2022/07/26 08:04:35;;;;;;;3.13;2.23;;;29.20;47.50;;;;;;5017074;28;20735;-81
2022/07/26 08:07:04;;;;;;;3.37;2.20;;;29.20;47.50;;;;;;5031774;28;20460;-82
2022/07/26 08:09:34;;;;;;;5.20;2.17;;;29.20;47.50;;;;;;5075127;28;20438;-82
2022/07/26 08:12:22;;;;;;;6.53;2.30;;;29.20;47.40;;;;;;5095064;28;20392;-82
2022/07/26 08:15:48;;;;;;;3.03;2.00;;;29.20;47.40;;;;;;5094656;28;20460;-82
2022/07/26 08:21:44;;;;;;;3.63;2.07;;;29.30;47.40;;;;;;5095718;28;20380;-82
2022/07/26 08:24:34;;;;;;;3.03;2.33;;;29.20;47.40;;;;;;5079848;28;20489;-82
2022/07/26 08:30:45;;;;;;;2.40;2.20;;;29.30;47.40;;;;;;5098228;28;20367;-82
2022/07/26 08:33:58;;;;;;;3.63;1.80;;;29.30;47.40;;;;;;5079180;28;20419;-82
2022/07/26 08:40:01;;;;;;;2.33;1.83;;;29.30;47.30;;;;;;5058765;28;20429;-82
2022/07/26 08:45:50;;;;;;;2.40;2.20;;;29.30;47.30;;;;;;5058207;28;20449;-82
2022/07/26 08:48:39;;;;;;;3.03;2.30;;;29.30;47.30;;;;;;5056760;28;20497;-82
2022/07/26 08:51:28;;;;;;;2.80;2.00;;;29.30;47.30;;;;;;5055866;28;20457;-82
2022/07/26 08:54:19;;;;;;;2.07;1.87;;;29.30;47.20;;;;;;5021622;28;20435;-82
2022/07/26 09:00:05;;;;;;;2.23;2.03;;;29.30;47.00;;;;;;5056712;28;20490;-81
2022/07/26 09:02:50;;;;;;;4.17;2.13;;;29.30;47.20;;;;;;5055765;28;20418;-81
2022/07/26 09:05:28;;;;;;;3.63;1.93;;;29.30;47.10;;;;;;5039142;28;20398;-82
2022/07/26 09:08:26;;;;;;;2.10;1.90;;;29.30;47.00;;;;;;5023381;28;20857;-82
2022/07/26 09:11:05;;;;;;;2.80;2.13;;;29.30;46.80;;;;;;5070173;28;20468;-81
2022/07/26 09:14:06;;;;;;;2.83;2.20;;;29.30;46.60;;;;;;5016000;28;20464;-82
2022/07/26 09:16:41;;;;;;;4.57;2.30;;;29.30;46.60;;;;;;5014522;28;20476;-81
2022/07/26 09:19:24;;;;;;;3.13;2.07;;;29.20;46.60;;;;;;5016086;28;20400;-81
2022/07/26 09:22:04;;;;;;;2.40;1.90;;;29.20;46.70;;;;;;5014967;28;20424;-82
2022/07/26 09:24:46;;;;;;;4.30;2.33;;;29.20;46.60;;;;;;5016017;28;20439;-82
2022/07/26 09:27:22;;;;;;;2.50;2.20;;;29.20;46.70;;;;;;5015372;28;20508;-82
2022/07/26 09:29:56;;;;;;;7.00;2.40;;;29.20;46.60;;;;;;4998551;28;20427;-83
2022/07/26 09:32:38;;;;;;;5.17;3.50;;;29.20;46.50;;;;;;4997137;28;20401;-82
2022/07/26 09:35:42;;;;;;;5.00;2.17;;;29.20;46.40;;;;;;4996405;28;20412;-83
2022/07/26 09:38:17;;;;;;;6.17;1.60;;;29.20;46.30;;;;;;4977412;28;20419;-83
2022/07/26 09:40:54;;;;;;;6.87;2.57;;;29.20;46.50;;;;;;5033222;28;20754;-83
2022/07/26 09:43:20;;;;;;;4.70;2.50;;;29.20;46.30;;;;;;5015840;28;20415;-82
2022/07/26 09:46:09;;;;;;;5.23;2.30;;;29.20;46.30;;;;;;5016916;28;20745;-83
2022/07/26 09:48:38;;;;;;;7.10;2.97;;;29.20;46.10;;;;;;5016694;28;20419;-82
2022/07/26 09:51:36;;;;;;;2.67;2.00;;;29.20;46.10;;;;;;5017125;28;20408;-82
2022/07/26 09:54:08;;;;;;;3.63;1.97;;;29.20;46.10;;;;;;5033380;28;20924;-82
2022/07/26 09:56:55;;;;;;;3.10;2.40;;;29.10;45.80;;;;;;5020565;28;20411;-83
2022/07/26 09:59:27;;;;;;;4.07;2.13;;;29.10;45.60;;;;;;5017900;28;20427;-82
2022/07/26 10:02:05;;;;;;;5.63;2.00;;;29.10;45.60;;;;;;5034012;28;20454;-82
2022/07/26 10:07:58;;;;;;;7.03;2.20;;;29.10;45.50;;;;;;4994808;28;20400;-82
2022/07/26 10:10:57;;;;;;;3.67;2.40;;;29.10;45.50;;;;;;4996473;28;20413;-83
2022/07/26 10:13:30;;;;;;;6.80;3.90;;;29.10;45.50;;;;;;4996790;28;20392;-83
2022/07/26 10:16:04;;;;;;;5.90;3.13;;;29.10;45.30;;;;;;4996383;28;20404;-82
2022/07/26 10:19:21;;;;;;;9.73;3.17;;;29.00;45.20;;;;;;4998171;28;20499;-82
2022/07/26 10:22:16;;;;;;;5.27;3.47;;;29.00;45.20;;;;;;4955675;29;20494;-83
2022/07/26 10:24:45;;;;;;;4.23;2.93;;;29.00;45.20;;;;;;4955342;29;20501;-82
2022/07/26 10:27:41;;;;;;;3.10;2.20;;;29.00;45.10;;;;;;4957004;29;20548;-81
2022/07/26 10:30:51;;;;;;;7.60;3.60;;;29.00;45.00;;;;;;4951983;29;20434;-84
2022/07/26 10:33:28;;;;;;;6.43;3.70;;;29.00;45.10;;;;;;4956683;29;20434;-80
2022/07/26 10:36:13;;;;;;;10.17;3.77;;;29.00;45.10;;;;;;4953993;29;20445;-82
2022/07/26 10:38:43;;;;;;;7.13;3.00;;;29.00;45.10;;;;;;4975774;29;20398;-80
2022/07/26 10:41:09;;;;;;;5.93;2.80;;;29.00;44.90;;;;;;4956197;29;20431;-81
2022/07/26 10:43:40;;;;;;;3.33;2.13;;;29.00;44.70;;;;;;4939035;29;20451;-81
2022/07/26 10:46:53;;;;;;;5.13;2.33;;;28.90;44.40;;;;;;4940413;29;20459;-81
2022/07/26 10:49:27;;;;;;;2.87;2.00;;;28.90;44.50;;;;;;4898978;29;20461;-81
2022/07/26 10:52:16;;;;;;;4.17;1.90;;;28.90;44.30;;;;;;4904494;29;20449;-80
2022/07/26 10:55:05;;;;;;;3.90;2.13;;;28.90;44.00;;;;;;4941389;29;20446;-81
2022/07/26 10:57:43;;;;;;;2.40;1.90;;;28.90;44.20;;;;;;4984976;28;20438;-81
2022/07/26 11:00:19;;;;;;;3.87;2.13;;;28.90;44.10;;;;;;4997769;28;20428;-81
2022/07/26 11:03:09;;;;;;;3.03;1.73;;;28.90;44.10;;;;;;4998376;28;20442;-84
2022/07/26 11:05:37;;;;;;;3.57;2.07;;;28.90;44.00;;;;;;5000249;28;20472;-81
2022/07/26 11:08:39;;;;;;;1.97;1.53;;;28.90;43.80;;;;;;4997031;28;20417;-81
2022/07/26 11:11:12;;;;;;;3.73;1.80;;;28.90;43.50;;;;;;5013630;28;20741;-82
2022/07/26 11:13:44;;;;;;;2.00;1.63;;;28.90;43.40;;;;;;4982706;28;20415;-81
2022/07/26 11:16:16;;;;;;;5.10;1.67;;;28.90;43.40;;;;;;4982505;28;20408;-81
2022/07/26 11:18:43;;;;;;;2.07;1.30;;;28.90;43.30;;;;;;4997025;28;20413;-80
2022/07/26 11:28:03;;;;;;;1.90;1.70;;;28.90;43.50;;;;;;4974522;29;20426;-81
2022/07/26 11:30:55;;;;;;;1.50;1.40;;;28.80;43.50;;;;;;4974779;29;20418;-83
2022/07/26 11:33:44;;;;;;;2.70;1.63;;;28.80;43.50;;;;;;4958701;29;20410;-81
2022/07/26 11:36:11;;;;;;;3.00;1.87;;;28.80;43.40;;;;;;4958674;29;20490;-81
2022/07/26 11:38:56;;;;;;;2.37;2.03;;;28.90;43.50;;;;;;4958481;29;20418;-80
2022/07/26 11:41:31;;;;;;;3.30;1.70;;;28.90;43.40;;;;;;4974492;29;20414;-81
2022/07/26 11:47:58;;;;;;;4.63;1.70;;;28.90;43.40;;;;;;4936684;29;20479;-81
2022/07/26 11:50:30;;;;;;;1.87;1.53;;;28.80;43.30;;;;;;4919968;29;20451;-81
2022/07/26 11:53:00;;;;;;;2.53;2.00;;;28.80;43.50;;;;;;4936357;29;20443;-81
2022/07/26 11:55:52;;;;;;;1.73;1.40;;;28.80;43.50;;;;;;4936168;29;20424;-81
2022/07/26 11:58:22;;;;;;;2.43;1.30;;;28.90;43.50;;;;;;4951895;29;20495;-81
2022/07/26 12:00:49;;;;;;;1.70;1.60;;;28.80;43.30;;;;;;4935410;29;20431;-81
2022/07/26 12:03:18;;;;;;;1.87;1.40;;;28.90;43.30;;;;;;4935392;29;20431;-82
2022/07/26 12:06:08;;;;;;;1.50;1.30;;;28.90;43.30;;;;;;4935337;29;20866;-82
2022/07/26 12:09:01;;;;;;;2.60;1.43;;;28.90;43.10;;;;;;4935813;29;20416;-82
2022/07/26 12:11:40;;;;;;;1.97;1.53;;;28.90;42.70;;;;;;4935505;29;20925;-80
2022/07/26 12:14:08;;;;;;;2.93;1.90;;;28.90;42.70;;;;;;4951107;29;20416;-81
2022/07/26 12:16:46;;;;;;;1.93;1.40;;;28.80;42.70;;;;;;4934649;29;20420;-81
2022/07/26 12:19:38;;;;;;;1.90;1.40;;;28.90;42.60;;;;;;4949913;29;20499;-81
2022/07/26 12:22:20;;;;;;;1.80;1.50;;;28.80;42.30;;;;;;4871684;29;20430;-82
2022/07/26 12:24:58;;;;;;;2.50;1.47;;;28.90;42.80;;;;;;4878517;29;20439;-80
2022/07/26 12:27:30;;;;;;;2.40;1.20;;;28.80;42.70;;;;;;4878329;29;20529;-81
2022/07/26 12:30:18;;;;;;;1.73;1.20;;;28.80;42.20;;;;;;4876698;29;20467;-82
2022/07/26 12:32:47;;;;;;;2.10;1.30;;;28.80;42.40;;;;;;4878792;29;20415;-81
2022/07/26 12:35:41;;;;;;;1.70;1.40;;;28.80;42.20;;;;;;4879451;29;20430;-81
2022/07/26 12:38:10;;;;;;;1.60;1.30;;;28.90;42.30;;;;;;4850458;29;20437;-82
2022/07/26 12:40:46;;;;;;;1.27;1.17;;;28.80;42.10;;;;;;4878664;29;20429;-82
2022/07/26 12:43:15;;;;;;;2.20;1.10;;;28.80;42.10;;;;;;4863711;29;20452;-81
2022/07/26 12:45:47;;;;;;;1.60;1.43;;;28.80;41.90;;;;;;4878883;29;20509;-82
2022/07/26 12:48:24;;;;;;;2.00;1.30;;;28.80;41.80;;;;;;4862973;29;20427;-81
2022/07/26 12:50:56;;;;;;;1.30;1.20;;;28.80;41.60;;;;;;4863004;29;20422;-81
2022/07/26 12:53:24;;;;;;;2.87;1.37;;;28.80;41.70;;;;;;4848720;29;20450;-82
2022/07/26 12:55:53;;;;;;;1.83;1.17;;;28.80;41.60;;;;;;4878904;29;20532;-81
2022/07/26 12:58:20;;;;;;;1.40;1.20;;;28.80;41.70;;;;;;4899250;28;20757;-80
2022/07/26 13:00:50;;;;;;;1.33;1.23;;;28.80;41.20;;;;;;4976577;28;20424;-81
2022/07/26 13:03:22;;;;;;;2.87;1.13;;;28.80;41.20;;;;;;4976989;28;20473;-81
2022/07/26 13:06:02;;;;;;;2.23;1.40;;;28.80;41.30;;;;;;4991433;28;20453;-81
2022/07/26 13:08:37;;;;;;;2.70;1.50;;;28.80;41.60;;;;;;4991078;28;20412;-82
2022/07/26 13:11:07;;;;;;;1.30;1.20;;;28.80;41.80;;;;;;4979711;28;20429;-82
2022/07/26 13:13:40;;;;;;;1.60;1.40;;;28.80;41.90;;;;;;4980833;28;20413;-82
2022/07/26 13:16:26;;;;;;;1.47;1.30;;;28.80;41.60;;;;;;4945970;28;20407;-82
2022/07/26 13:18:58;;;;;;;1.67;1.20;;;28.80;41.50;;;;;;4996770;28;20418;-81
2022/07/26 13:21:24;;;;;;;1.43;1.07;;;28.80;41.50;;;;;;4981141;28;20485;-81
2022/07/26 13:23:55;;;;;;;1.63;1.23;;;28.80;41.70;;;;;;4948697;28;20417;-81
2022/07/26 13:26:25;;;;;;;1.57;1.33;;;28.80;41.80;;;;;;4979855;28;20889;-81
2022/07/26 13:28:57;;;;;;;1.47;1.20;;;28.80;41.60;;;;;;4997197;28;20409;-81
2022/07/26 13:31:26;;;;;;;2.03;1.23;;;28.80;41.80;;;;;;4964083;28;20485;-82
2022/07/26 13:33:53;;;;;;;1.40;1.27;;;28.90;41.80;;;;;;4964108;28;20413;-81
2022/07/26 13:36:23;;;;;;;1.87;1.30;;;28.90;41.70;;;;;;4963970;28;20521;-81
2022/07/26 13:39:27;;;;;;;1.70;1.20;;;28.90;41.40;;;;;;4996175;28;20494;-81
2022/07/26 13:41:54;;;;;;;1.60;1.20;;;28.90;41.10;;;;;;4996552;28;20412;-82
2022/07/26 13:44:22;;;;;;;2.37;1.03;;;28.80;41.30;;;;;;4979554;28;20464;-82
2022/07/26 13:46:51;;;;;;;1.73;1.23;;;28.80;41.70;;;;;;4996456;28;20499;-82
2022/07/26 13:49:22;;;;;;;1.87;1.67;;;28.90;41.60;;;;;;4995977;28;20401;-82
2022/07/26 13:51:57;;;;;;;1.60;1.20;;;28.90;41.40;;;;;;4979616;28;20421;-81
2022/07/26 13:54:34;;;;;;;1.90;1.70;;;28.90;41.30;;;;;;4996210;28;20850;-81
2022/07/26 13:57:06;;;;;;;1.30;1.20;;;28.80;41.30;;;;;;5012011;28;20495;-80
2022/07/26 13:59:36;;;;;;;1.40;1.10;;;28.90;41.40;;;;;;4996511;28;20405;-80
2022/07/26 14:02:06;;;;;;;2.80;1.30;;;28.80;41.30;;;;;;4995379;28;20397;-83
2022/07/26 14:04:36;;;;;;;1.60;1.30;;;28.80;41.00;;;;;;5011857;28;20406;-81
2022/07/26 14:07:15;;;;;;;1.90;1.20;;;28.80;40.60;;;;;;4995680;28;20456;-81
2022/07/26 14:09:44;;;;;;;1.90;1.13;;;28.80;40.40;;;;;;4964352;28;20417;-81
2022/07/26 14:12:15;;;;;;;1.93;1.50;;;28.80;40.40;;;;;;4996122;28;20410;-82
2022/07/26 14:14:42;;;;;;;1.60;1.30;;;28.80;40.40;;;;;;4979461;28;20492;-81